25 March 2009

Crash: Fedex MD11 at Tokyo on Mar 23rd 2009, turned on its back while landing in gusty winds

Crash: Fedex MD11 at Tokyo on Mar 23rd 2009, turned on its back while landing in gusty winds

Aerial Shot of the scene

Last updated Tuesday, Mar 24th 2009 08:27Z

Cleaning up after the crash

A Fedex McDonnell Douglas MD-11 freighter, registration N526FE performing flight FX-80 from Guangzhou to Tokyo Narita (Japan) with 2 crew, caught a gust while landing at Tokyo's Narita airport, rolled inverted, veered off the runway and burst into flames while landing on runway 34L at 06:50 local (Mar 22nd 21:50Z). The 2 crew on board perished in the crash.

Weather services in Japan reported gusts up to 40 knots at the time of the accident.

The airplane became unstable during the flare, bounced off the runway, touched down a second time with the nose gear first, rolled to its left, the left wing impacted ground and separated, the airplane burst into flames before the airplane rolled on its back and came to a stop.

Emergency services needed two hours to extinguish the blaze. Although the fire brigades were able to keep the fire away from the cockpit, the crew could not be saved. The impact forces as well as the weight of debris in the cockpit had already killed the crew.

Narita's main runway 34L/16R (4000 meters/13100 feet in length) was closed for more than 26 hours after the accident and reopened on Tuesday 09:00 local (00:00Z). The runway surface was repaired, the wreckage was cut and removed to a hangar.

Serious disruptions of air traffic were caused by the loss of the main runway, as the secondary runway 16L/34R is only 2180 meters/7100 feet in length disabling many long distance aircraft to land or depart. More than 40 airlines needed to divert their arriving flights to as far as Osaka, several hundred flights had to be cancelled.

The JTSB reported, that the flight data recorder and cockpit voice recorder have both been recovered, data analysis has started. The nose gear tires were found separated from the wheels supposedly departing the rims when the airplane touched down the second time with the nose gear first, the left wing broke off at the wing root at impact with the runway. The NTSB (USA) is joining the investigation with a go-team.

On Tuesday the JTSB reported, that 9 flights had landed preceding the Fedex MD-11 with no trouble. However, 7 of those 9 crews reported wind shear between 1800 feet and the runway elevation, the first report was issued at 06:15 local. The tower noticed windspeed changes of up to 20 knots associated with those reports. The Fedex flight landed while the same wind conditions existed as for those 7 flights.


updated 3:25 p.m. PT, Mon., March. 23, 2009

TOKYO - Wind shear may have caused the crash of a FedEx jet that cartwheeled on the runway at Tokyo's main international airport and burst into a fireball, investigators said Monday, but experts noted that the model was notoriously difficult to land.

The American pilot and co-pilot — the only two people on board — were killed when the MD-11 cargo plane bounced on its landing at Tokyo's Narita international airport, slammed onto the runway and tipped onto its side before exploding into flames.

Kazuhito Tanakajima, an aviation safety official at the Transport Ministry, said the crash may have been the result of "wind shear," sudden changes in wind that can lift or smash an aircraft into the ground during landing.

But Tanakajima said the wind speed alone was not necessarily dangerous. He said there was headwind of about 45 miles per hour (72 kilometers per hour), and a crosswind of about 7 miles per hour.

Sudden changes in wind
Wind shear is a sudden change in the speed and direction of the wind, and happens relatively frequently. But a dangerous localized form — called a microburst — can cause planes to lose airspeed suddenly and or lift abruptly if a headwind suddenly changes to a tail wind during takeoff or landing, said Patrick Smith, a Boston based pilot and aviation analyst.

During the 1970s and 1980s, microbursts were blamed for a number of aviation disasters in the United States that helped usher in a new generation of wind shear detection technology.

Smith described a wind speed of 45 mph as unusually powerful.

"It is possible that shears from these gusts, together with known instability issues of the MD-11, led to the accident."

He said the aircraft is unusually sensitive on the controls but the downside is a tendency for pilots to over-control during a bounced or otherwise unstable landing, which in severe cases can lead to a total loss of control.

The MD-11 has had no fatal crashes since 1999 and was largely retired from passenger service because of the introduction of more economical planes.

Tomoki Kuwano, a former Japan Airlines pilot and aviation expert, said the MD-11 can be hard to land.

"In the past, the MD-11 has a record of landing failure," he said. "And when that happens it often flips over."

Other crashes involving MD-11s
In 1999, an MD-11 flipped over and burst into flames, killing three people during a crash landing in a storm in Hong Kong. And in 1997 one of the planes landed hard, flipped and caught fire while landing in Newark, N.J.

Monday's was the first deadly crash at Narita — the main air hub for international flights to Tokyo — since the airport opened in 1978. According to the U.S. Federal Aviation Administration, pilot Kevin Kyle Mosley, 54, of Hillsboro, Ore., and co-pilot Anthony Stephen Pino, 49, of San Antonio, Texas — were killed as they landed the flight from Guangzhou, China.

FedEx, which just last month opened its Asian hub in Guangzhou, said it was investigating the cause of the accident.

"We will continue to work closely with the applicable authorities as we seek to determine the cause for this tragic incident," the company said in a statement.

RJAA 222238Z 30019G32KT 9999 FEW030 12/M03 Q1002 WS R34R RMK 1CU030 A2959
RJAA 222230Z 30018KT 9999 FEW030 12/M03 Q1001 WS R34R TEMPO 31020G30KT RMK 1CU030 A2959 2218 MOD TURB BLW 500FT ON FNA RWY34R B767
RJAA 222200Z 31026G40KT 9999 FEW020 12/M02 Q1001 NOSIG RMK 1CU020 A2957 P/RR
RJAA 222130Z 32026G40KT 9999 FEW020 12/M02 Q0999 WS R34L NOSIG RMK 1CU020 A2952P/RR
RJAA 222108Z 31025G35KT 9999 FEW020 12/M01 Q0998 RMK 1CU020 A2949
RJAA 222100Z 30013G28KT 260V330 9999 FEW020 13/M01 Q0998 NOSIG RMK 1CU020 A2948
RJAA 222041Z 26012KT 210V300 9999 FEW020 12/02 Q0998 RMK 1CU020 A2948
RJAA 222033Z 32016G26KT 9999 FEW020 11/03 Q0998 RMK 1CU020 A2947
RJAA 222030Z 32017KT 9999 FEW020 12/02 Q0998 NOSIG RMK 1CU020 A2948
RJAA 222000Z 33012KT 9999 FEW020 11/05 Q0997 NOSIG RMK 1CU020 A2946
RJAA 221930Z 32012KT 9999 FEW020 13/06 Q0997 NOSIG RMK 1CU020 A2944
RJAA 221900Z 31009KT CAVOK 13/08 Q0996 NOSIG RMK A2941

An Airport Surveillance Camera caught the landing and crash:

06 March 2009

First all female African American flight crew makes history

This is why I love what I do and being a pilot and able to fly it's great to see modern day achievements in the world of aviation. Now, this is something that is more rare than the Pope in the hood for a bbq! An all black "female" flight crew for a major air carrier! Bravo sistas Bravo!!!! As a pilot you don't get the chance to see many women let alone one African American...and here you got two and two flight attendants!!!

So fellas, sistas are doing it big and it has nothing to do with their looks...Can the fellas handle a woman who flies planes for a living or has been to space, travel and has seen the world??? I don't know, that's a tall order for any man but I think in the end the brothas can step forward and represent and be supportive.

This is as big an event in the world of aviation as Barrack Obama becoming president! Yes it's that big and important, maybe not to the average traveler but for the little girls who may have that desire down the road a few years from now can look on The Discovery Channel and see when the first all African American female flight crew was and who they flew for or the first female astronauts and when they flew!!!

(See excerpt below for first African American Woman in Space) I tip my hat to the ladies of this flight crew who obviously completed their flight without any problems and maybe one day when I have my own airline you will see more all black flight crews because they will be qualified to do the job!!!

by Scott Carmichael Mar 3rd 2009 @ 2:30PM

I love good news from the aviation world - it really does bring a smile to my face amongst all the doom and gloom stories out there.A good example of something great comes from regional carrier Atlantic Southeast Airlines. For the first time in history, a domestic US flight was staffed by an all female African American flight crew.

The 4 - Captain Rachelle Jones, First Officer Stephanie Grant, and flight attendants Diana Galloway and Robin Rogers probably did not know that they were about to make history when they boarded their flight from Atlanta to Nashville.When the crew realized the importance of their flight, they were naturally quite excited, and captain Jones said " this could be a first, so let's be on our P's and Q's".

ASA President Brad Holt issued the following statement: "Not only are these women gifted in their professions, but they set examples for young people across the country that with hard work, passion and determination, the sky is the limit."Atlantic Southeast Airlines has a special contact page, where you can leave your own message of congratulations to the crew of flight 5202.

Outside of these facts, they are all top professionals in a game that is dominated by men...Fellas watch out!!!

Here is a few more sistas who set the bar really high...let's just say out of this world!!!


Mae C. Jemison blasted into orbit aboard the space shuttle Endeavor, September 12, 1992, the first woman of color to go into space. This historic event was only another in a series of accomplishments for this dynamic African-American women.
Dr. Jemison was Science Mission Specialist (a NASA first) on the STS-47 Space lab J flight, a US/Japan joint mission. She conducted experiments in life sciences, material sciences, and was co-investigator in the Bone Cell Research experiment. Dr. Jemison resigned from NASA in March 1993.

Chemical engineer, scientist, physician, teacher and astronaut, she has a wide range of experience in technology, engineering, and medical research. In addition to her extensive background in science, she is well-versed in African and African-American Studies and is trained in dance and choreography.

***NASA Astronaut Joan Higginbotham

Higginbotham became the third Black woman to join a NASA space flight when she traveled on the shuttle Discovery for a 12-day mission to the International Space Station in December 2006.

***NASA Astronaut Stephanie Wilson

Astronaut Stephanie Wilson, STS-121 mission specialist. She became interested in being an astronaut when she was about 13. "I was first interested in astronomy when I was given an assignment in school to interview someone in an, that worked in a career field in which I was interested. I have a bachelor's degree in engineering science from Harvard University; and a master's in aerospace engineering from the University of Texas at Austin. I worked for the former Martin Marietta astronautics group, on the Titan 4 launch vehicle. I did dynamics analysis. I also worked at the Jet Propulsion Laboratory in the attitude and articulation control group for the Galileo spacecraft. So for me, working here at Johnson Space Center as an astronaut has been a natural progression from working on the dynamic response of launch vehicles to controlling and testing robotic spacecraft to now having a chance to fly on the Shuttle."

02 March 2009

Now Ryanair wants you to leave your luggage at home...Or they will charge you to carry it on!

Hello All BlkAv8tor2003 Checking In!!!

If you have read my blog before then you know that I have said that since the airlines have been going through their tough financial times and charging the passenger for everything under the sun, that the next thing to come would be charging every passenger for carry-on baggage. Well here is the first tier of this and Ryanair is kind of leading the charge (no pun intended) by potentially charging the passenger for carry-on bags and even additional fees for a lap child (child riding on your lap under the age of 2 years {documented}). The story is below and it's only a matter of time for the US carriers to look and see how it plays out in the UK and then to come up with something somewhat like it to be able to do the same.

Remember Be Proactive, Not Reactive and enjoy your flight!!!


The Ryanair headline-making machine just churns on and on, and the outrage rises from the flying masses like a bubble of hot gas which threatens to more harm to the environment than all Ryanair’s hard-worked aircraft put together.

The airline’s latest move is aimed at those beasts of burden who arrive for their flights weighed down with, you know, stuff, like a trading caravan. From the end of this year, says the airline, passengers who wish to check luggage into the aircraft’s hold will be directed to baggage-drop points, since there will no longer be any check-in desks either.

This follows a previous annoucement that passengers attempting to board flights carrying more than one piece of hand luggage would be charged £30 (R430) at the gate.

So it’s one piece of hand luggage only, nothing in the hold, and, as this editorial in The Times, London, notes, “if you have an infant - £38 return to sit on your lap - leave it at home”.

For the unencumbered traveller, it’s probably a good thing. Who likes travelling heavy anyway? But they had better weigh those bags before putting them in the overhead bins, because that’s where people will stash their skelm kilograms. Yep, right above your head.